Time;durP1;ratioP1;P1;durP2;ratioP2;P2;SDS_P1;SDS_P2;PMS_P1;PMS_P2;Temp;Humidity;BMP_temperature;BMP_pressure;BME280_temperature;BME280_humidity;BME280_pressure;Samples;Min_cycle;Max_cycle;Signal;HPM_P1;HPM_P2
2021/04/30 00:01:00;;;;;;;;;121.75;104.75;;;;;13.46;70.58;101399.66;4918017;29;11632;-75
2021/04/30 00:03:55;;;;;;;;;99.50;86.50;;;;;13.38;70.27;101392.97;4917787;29;11738;-74
2021/04/30 00:06:51;;;;;;;;;109.00;100.00;;;;;13.30;70.61;101400.19;4916344;29;11671;-75
2021/04/30 00:09:46;;;;;;;;;145.33;125.00;;;;;13.19;71.09;101406.38;4901347;29;8853;-75
2021/04/30 00:12:42;;;;;;;;;116.00;99.67;;;;;13.31;70.58;101384.34;4898624;29;8872;-75
2021/04/30 00:15:39;;;;;;;;;137.00;110.00;;;;;13.23;70.51;101386.00;4898943;29;8961;-75
2021/04/30 00:18:35;;;;;;;;;136.00;115.00;;;;;13.21;70.68;101379.97;4885877;29;8885;-75
2021/04/30 00:21:30;;;;;;;;;151.00;118.33;;;;;13.08;70.98;101384.53;4898728;29;8853;-75
2021/04/30 00:24:26;;;;;;;;;124.00;108.00;;;;;12.97;72.22;101380.50;4904816;29;8843;-74
2021/04/30 00:27:22;;;;;;;;;80.67;53.33;;;;;12.90;72.99;101382.16;4904880;29;8937;-74
2021/04/30 00:30:18;;;;;;;;;151.00;127.67;;;;;12.89;73.06;101378.56;4904943;29;8877;-74
2021/04/30 00:33:14;;;;;;;;;156.00;132.33;;;;;12.75;73.90;101375.16;4904036;29;8911;-74
2021/04/30 00:36:09;;;;;;;;;134.67;116.67;;;;;12.68;74.51;101375.63;4914153;29;8851;-74
2021/04/30 00:39:05;;;;;;;;;145.67;117.33;;;;;12.72;73.90;101376.59;4917363;29;8892;-74
2021/04/30 00:42:05;;;;;;;;;128.00;110.00;;;;;12.64;74.67;101374.66;4917207;29;8855;-74
2021/04/30 00:45:00;;;;;;;;;130.67;107.67;;;;;12.68;74.57;101374.84;4917427;29;9599;-73
2021/04/30 00:47:56;;;;;;;;;116.67;96.00;;;;;12.75;73.40;101367.63;4916631;29;8851;-74
2021/04/30 00:50:52;;;;;;;;;90.00;79.75;;;;;12.82;72.64;101367.13;4898870;29;11829;-74
2021/04/30 00:53:48;;;;;;;;;91.75;76.75;;;;;12.87;70.55;101366.13;4905532;29;11639;-74
2021/04/30 00:56:45;;;;;;;;;107.00;88.50;;;;;12.85;71.67;101360.91;4882258;29;11837;-74
2021/04/30 00:59:40;;;;;;;;;106.00;93.00;;;;;12.78;72.22;101363.38;4930875;29;11658;-74
2021/04/30 01:02:39;;;;;;;;;116.75;89.75;;;;;12.68;72.96;101374.84;4935534;29;11701;-75
2021/04/30 01:05:38;;;;;;;;;97.75;85.50;;;;;12.57;73.19;101371.56;4926293;29;11808;-74
2021/04/30 01:08:34;;;;;;;;;83.00;67.25;;;;;12.49;72.81;101373.19;4935492;29;11651;-74
2021/04/30 01:11:30;;;;;;;;;101.33;88.33;;;;;12.64;72.14;101368.28;4904611;29;11660;-74
2021/04/30 01:14:25;;;;;;;;;106.50;93.75;;;;;12.29;74.47;101373.06;4904600;29;11756;-73
2021/04/30 01:17:21;;;;;;;;;95.25;82.25;;;;;12.41;73.60;101371.25;4903615;29;11653;-73
2021/04/30 01:20:20;;;;;;;;;91.75;72.00;;;;;12.50;73.12;101374.03;4903806;29;11639;-74
2021/04/30 01:23:16;;;;;;;;;96.75;89.25;;;;;12.43;72.89;101374.53;4898409;29;11660;-74
2021/04/30 01:26:12;;;;;;;;;88.75;74.00;;;;;12.48;71.87;101371.56;4884746;29;11641;-74
2021/04/30 01:29:07;;;;;;;;;90.00;76.00;;;;;12.50;70.04;101363.75;4897441;29;11644;-74
2021/04/30 01:32:03;;;;;;;;;78.50;62.50;;;;;12.50;68.56;101360.97;4897064;29;11670;-74
2021/04/30 01:34:59;;;;;;;;;94.75;81.50;;;;;12.58;67.53;101356.56;4905434;29;11598;-74
2021/04/30 01:37:55;;;;;;;;;68.50;51.00;;;;;12.68;66.83;101355.41;4915936;29;11773;-74
2021/04/30 01:40:51;;;;;;;;;80.00;64.50;;;;;12.64;66.74;101352.44;4903246;29;11652;-74
2021/04/30 01:43:46;;;;;;;;;80.25;63.50;;;;;12.51;66.76;101348.72;4884541;29;11637;-74
2021/04/30 01:46:42;;;;;;;;;81.00;64.00;;;;;12.70;66.26;101355.88;4884465;29;11656;-74
2021/04/30 01:49:37;;;;;;;;;85.25;70.50;;;;;12.63;65.82;101350.81;4884555;29;11736;-74
2021/04/30 01:52:33;;;;;;;;;81.25;67.00;;;;;12.77;65.47;101351.47;4897259;29;11665;-74
2021/04/30 01:55:30;;;;;;;;;79.00;61.00;;;;;12.76;65.72;101355.38;4896974;29;11627;-75
2021/04/30 01:58:26;;;;;;;;;85.75;68.75;;;;;12.79;65.77;101356.66;4933302;29;11607;-75
2021/04/30 02:01:22;;;;;;;;;82.50;67.50;;;;;12.90;65.37;101355.19;4933918;29;11822;-74
2021/04/30 02:04:17;;;;;;;;;84.50;68.25;;;;;12.66;65.53;101350.19;4931813;29;11736;-74
2021/04/30 02:07:13;;;;;;;;;101.25;89.00;;;;;12.69;65.94;101355.06;4914536;29;11696;-75
2021/04/30 02:10:23;;;;;;;;;98.75;88.50;;;;;12.56;67.76;101367.16;4915585;29;11720;-74
2021/04/30 02:13:20;;;;;;;;;82.25;63.25;;;;;12.42;68.64;101372.06;4915390;29;11652;-74
2021/04/30 02:16:15;;;;;;;;;90.00;78.25;;;;;12.25;69.30;101367.31;4914937;29;11631;-74
2021/04/30 02:19:11;;;;;;;;;91.25;85.00;;;;;12.16;69.67;101369.28;4915007;29;11712;-74
2021/04/30 02:22:06;;;;;;;;;74.50;59.75;;;;;12.11;70.08;101374.97;4896503;29;11651;-74
2021/04/30 02:25:04;;;;;;;;;84.25;69.25;;;;;12.03;71.04;101378.56;4884269;29;12388;-74
2021/04/30 02:28:02;;;;;;;;;78.00;62.00;;;;;11.76;72.17;101382.41;4883857;29;11669;-74
2021/04/30 02:30:57;;;;;;;;;68.00;52.00;;;;;11.53;73.31;101389.97;4884110;29;11635;-74
2021/04/30 02:33:53;;;;;;;;;54.75;46.50;;;;;11.69;72.60;101385.63;4885241;29;12376;-74
2021/04/30 02:36:48;;;;;;;;;52.50;44.75;;;;;11.66;72.64;101389.88;4915671;29;11742;-74
2021/04/30 02:39:45;;;;;;;;;45.75;39.50;;;;;11.66;72.49;101386.28;4915246;29;12350;-74
2021/04/30 02:42:42;;;;;;;;;54.75;45.00;;;;;11.81;71.71;101385.03;4902641;29;11578;-73
2021/04/30 02:45:41;;;;;;;;;58.50;48.00;;;;;11.82;71.62;101387.50;4915060;29;12345;-73
2021/04/30 02:48:37;;;;;;;;;59.50;48.75;;;;;11.64;72.28;101383.00;4897541;29;11608;-74
2021/04/30 02:51:33;;;;;;;;;53.75;46.00;;;;;11.45;72.85;101391.59;4896461;29;11615;-74
2021/04/30 02:54:29;;;;;;;;;14.50;12.75;;;;;11.43;73.11;101398.59;4898408;29;12448;-74
2021/04/30 02:57:25;;;;;;;;;59.00;49.00;;;;;11.53;72.74;101393.56;4902457;29;12347;-75
2021/04/30 03:00:23;;;;;;;;;64.00;53.00;;;;;11.64;72.56;101394.09;4915202;29;11689;-74
2021/04/30 03:03:18;;;;;;;;;69.25;53.00;;;;;11.69;72.19;101402.25;4915262;29;11638;-74
2021/04/30 03:06:14;;;;;;;;;66.25;54.50;;;;;11.73;71.73;101394.97;4911659;29;11576;-75
2021/04/30 03:09:10;;;;;;;;;75.25;58.25;;;;;11.74;72.15;101390.22;4915043;29;11747;-74
2021/04/30 03:12:05;;;;;;;;;66.25;53.50;;;;;11.72;72.27;101390.53;4915025;29;11620;-75
2021/04/30 03:15:02;;;;;;;;;61.50;52.25;;;;;11.69;71.96;101393.94;4905795;29;11629;-74
2021/04/30 03:17:58;;;;;;;;;61.25;51.75;;;;;11.73;71.63;101400.50;4918424;29;11616;-75
2021/04/30 03:20:55;;;;;;;;;59.50;50.75;;;;;11.71;71.52;101391.66;4905416;29;11602;-74
2021/04/30 03:23:51;;;;;;;;;52.50;41.50;;;;;11.77;71.50;101395.13;4917604;29;11710;-75
2021/04/30 03:26:48;;;;;;;;;53.75;45.50;;;;;11.81;71.27;101393.34;4914549;29;11664;-74
2021/04/30 03:29:44;;;;;;;;;53.00;45.75;;;;;11.75;71.48;101402.94;4887226;29;11638;-74
2021/04/30 03:32:40;;;;;;;;;52.50;43.00;;;;;11.77;71.59;101398.69;4898006;29;11656;-74
2021/04/30 03:35:35;;;;;;;;;48.50;40.25;;;;;11.84;71.05;101412.13;4895543;29;12276;-74
2021/04/30 03:38:32;;;;;;;;;47.00;40.25;;;;;11.93;70.68;101401.88;4903014;29;11722;-74
2021/04/30 03:41:29;;;;;;;;;35.25;35.00;;;;;12.02;70.56;101402.69;4905177;29;11683;-74
2021/04/30 03:44:24;;;;;;;;;36.50;35.50;;;;;12.01;70.44;101395.53;4916528;29;11711;-74
2021/04/30 03:47:20;;;;;;;;;42.50;39.00;;;;;12.11;70.01;101400.75;4916314;29;11575;-74
2021/04/30 03:50:16;;;;;;;;;35.00;34.50;;;;;12.23;69.62;101402.91;4918022;29;11574;-74
2021/04/30 03:53:12;;;;;;;;;38.25;35.50;;;;;12.27;69.19;101405.81;4917393;29;11550;-75
2021/04/30 03:56:07;;;;;;;;;54.50;46.25;;;;;12.42;68.44;101416.44;4917718;29;11566;-74
2021/04/30 03:59:03;;;;;;;;;61.75;52.25;;;;;12.46;68.55;101420.22;4899359;29;11603;-74
2021/04/30 04:01:58;;;;;;;;;46.75;42.25;;;;;12.41;68.14;101404.53;4898658;29;11606;-75
2021/04/30 04:04:55;;;;;;;;;30.50;27.00;;;;;12.58;67.46;101425.13;4896932;29;11590;-74
2021/04/30 04:07:51;;;;;;;;;31.25;31.25;;;;;12.46;67.80;101411.88;4915110;29;11284;-76
2021/04/30 04:10:46;;;;;;;;;38.75;32.75;;;;;12.66;67.42;101414.00;4886322;29;11448;-75
2021/04/30 04:13:42;;;;;;;;;35.75;34.25;;;;;12.74;67.32;101410.41;4899199;29;11420;-76
2021/04/30 04:16:38;;;;;;;;;31.25;30.75;;;;;12.77;67.08;101395.88;4899167;29;11741;-76
2021/04/30 04:19:33;;;;;;;;;33.50;33.50;;;;;12.63;67.29;101402.75;4907765;29;11268;-77
2021/04/30 04:22:29;;;;;;;;;37.75;36.75;;;;;12.63;67.78;101411.06;4910304;29;11214;-75
2021/04/30 04:25:25;;;;;;;;;29.00;26.75;;;;;12.96;66.98;101409.41;4904091;29;11117;-77
2021/04/30 04:28:20;;;;;;;;;25.25;24.75;;;;;13.12;66.56;101408.88;4917453;29;11185;-75
2021/04/30 04:31:16;;;;;;;;;28.75;28.75;;;;;13.18;66.52;101405.56;4912232;29;11085;-76
2021/04/30 04:34:12;;;;;;;;;29.50;29.50;;;;;13.47;65.80;101404.03;4917101;29;10701;-75
2021/04/30 04:37:07;;;;;;;;;29.25;27.75;;;;;13.44;65.62;101402.75;4902971;29;11202;-76
2021/04/30 04:40:03;;;;;;;;;31.50;31.50;;;;;13.59;65.27;101395.84;4907624;29;10863;-76
2021/04/30 04:42:59;;;;;;;;;27.75;27.75;;;;;13.82;65.20;101401.94;4911417;29;10799;-78
2021/04/30 04:45:56;;;;;;;;;21.00;21.00;;;;;13.87;64.66;101404.50;4908780;29;10761;-76
2021/04/30 04:48:52;;;;;;;;;41.50;37.75;;;;;14.34;70.86;101407.16;4885328;29;10510;-73
2021/04/30 04:51:47;;;;;;;;;31.50;31.50;;;;;14.64;68.72;101405.94;4898479;29;11113;-73
2021/04/30 04:54:43;;;;;;;;;46.25;39.50;;;;;14.92;68.01;101405.34;4897850;29;10660;-72
2021/04/30 04:57:38;;;;;;;;;39.75;36.75;;;;;15.28;68.10;101410.22;4897760;29;11509;-73
2021/04/30 05:00:34;;;;;;;;;35.25;31.50;;;;;15.49;64.46;101410.97;4897373;29;11369;-73
2021/04/30 05:03:30;;;;;;;;;66.75;53.00;;;;;15.99;72.32;101403.44;4913484;29;10387;-74
2021/04/30 05:05:58;;;;;;;;;85.50;74.75;;;;;16.31;73.43;101396.84;4915818;29;11658;-74
2021/04/30 05:08:34;;;;;;;;;94.00;91.25;;;;;16.76;75.29;101398.59;4883923;29;11636;-73
2021/04/30 05:11:29;;;;;;;;;49.50;42.00;;;;;16.62;64.14;101398.16;4897323;29;11677;-74
2021/04/30 05:14:25;;;;;;;;;74.75;61.50;;;;;16.78;68.16;101409.41;4897276;29;10763;-73
2021/04/30 05:17:20;;;;;;;;;62.25;51.00;;;;;17.03;67.60;101399.75;4897303;29;11625;-74
2021/04/30 05:20:19;;;;;;;;;54.50;45.75;;;;;17.18;66.73;101409.34;4889165;29;11650;-74
2021/04/30 05:23:15;;;;;;;;;43.75;38.50;;;;;17.09;60.47;101411.47;4895843;29;10649;-74
2021/04/30 05:26:10;;;;;;;;;56.50;47.50;;;;;17.53;69.05;101403.84;4877762;29;10492;-74
2021/04/30 05:29:06;;;;;;;;;35.50;33.50;;;;;17.59;63.68;101402.41;4894484;29;10607;-74
2021/04/30 05:32:02;;;;;;;;;42.75;33.00;;;;;17.40;58.63;101403.13;4878132;29;9882;-75
2021/04/30 05:34:59;;;;;;;;;54.50;46.00;;;;;17.59;64.08;101396.81;4889838;29;9563;-71
2021/04/30 05:37:27;;;;;;;;;35.00;32.67;;;;;17.72;59.09;101398.38;4897080;29;10425;-70
2021/04/30 05:40:25;;;;;;;;;32.00;30.00;;;;;17.77;57.53;101388.88;4886260;29;9340;-71
2021/04/30 05:43:21;;;;;;;;;33.67;32.00;;;;;17.95;63.49;101381.75;4889571;29;9181;-71
2021/04/30 05:46:16;;;;;;;;;27.33;25.67;;;;;18.26;60.77;101386.44;4897134;29;9516;-72
2021/04/30 05:49:12;;;;;;;;;36.00;34.00;;;;;18.53;62.12;101384.59;4896821;29;9098;-71
2021/04/30 05:52:07;;;;;;;;;28.33;28.00;;;;;18.67;60.62;101386.09;4895912;29;9112;-71
2021/04/30 05:54:36;;;;;;;;;24.50;22.75;;;;;18.83;58.30;101389.63;4897946;29;9040;-72
2021/04/30 05:57:31;;;;;;;;;16.50;16.50;;;;;18.88;53.67;101389.34;4883404;29;8982;-72
2021/04/30 06:00:27;;;;;;;;;29.33;28.00;;;;;18.82;56.57;101390.81;4877377;29;8852;-72
2021/04/30 06:03:03;;;;;;;;;16.50;16.50;;;;;18.99;53.05;101390.34;4878918;29;8951;-72
2021/04/30 06:05:31;;;;;;;;;15.00;15.00;;;;;19.16;52.44;101395.47;4878645;29;8871;-72
2021/04/30 06:08:26;;;;;;;;;16.25;16.25;;;;;19.25;52.21;101392.44;4877530;29;8955;-72
2021/04/30 06:11:22;;;;;;;;;13.75;12.75;;;;;19.51;51.28;101382.47;4877751;29;8848;-72
2021/04/30 06:14:18;;;;;;;;;13.75;13.25;;;;;19.60;51.52;101378.25;4877530;29;9698;-73
2021/04/30 06:16:47;;;;;;;;;19.75;19.75;;;;;19.82;56.61;101372.97;4877464;29;8867;-73
2021/04/30 06:19:43;;;;;;;;;15.75;15.00;;;;;19.98;52.92;101373.63;4877629;29;8903;-73
2021/04/30 06:22:39;;;;;;;;;18.75;18.50;;;;;20.08;54.38;101374.94;4865288;29;8864;-72
2021/04/30 06:25:34;;;;;;;;;23.75;20.00;;;;;20.04;49.28;101368.50;4877501;29;8919;-73
2021/04/30 06:28:30;;;;;;;;;20.50;20.50;;;;;20.25;51.99;101377.22;4895078;29;8936;-71
2021/04/30 06:31:25;;;;;;;;;11.50;11.50;;;;;20.53;49.40;101374.78;4913226;29;8891;-72
2021/04/30 06:34:21;;;;;;;;;9.00;9.00;;;;;20.57;48.13;101374.06;4892391;29;8853;-72
2021/04/30 06:37:17;;;;;;;;;10.75;10.75;;;;;20.41;47.91;101386.25;4891885;29;8901;-71
2021/04/30 06:40:13;;;;;;;;;10.75;10.00;;;;;20.57;47.53;101386.09;4874924;29;8863;-72
2021/04/30 06:42:40;;;;;;;;;11.75;11.75;;;;;20.62;48.99;101384.94;4876794;29;9654;-72
2021/04/30 06:45:08;;;;;;;;;11.50;10.25;;;;;20.57;47.54;101382.47;4876235;29;8855;-70
2021/04/30 06:48:05;;;;;;;;;19.50;16.50;;;;;20.86;45.92;101386.44;4911830;29;8961;-72
2021/04/30 06:51:00;;;;;;;;;2.75;2.75;;;;;20.81;44.29;101390.38;4899297;29;8960;-71
2021/04/30 06:53:29;;;;;;;;;11.75;11.75;;;;;20.83;45.52;101386.00;4901187;29;9017;-73
2021/04/30 06:56:25;;;;;;;;;8.75;8.75;;;;;20.80;46.14;101386.78;4899737;29;8908;-72
2021/04/30 06:59:21;;;;;;;;;8.75;8.75;;;;;20.95;46.19;101390.56;4898244;29;8935;-72
2021/04/30 07:01:48;;;;;;;;;8.00;8.00;;;;;21.10;45.79;101388.72;4883715;29;8877;-72
2021/04/30 07:04:45;;;;;;;;;8.25;8.25;;;;;21.27;45.90;101387.25;4895077;29;8859;-72
2021/04/30 07:07:12;;;;;;;;;13.00;10.00;;;;;21.38;43.83;101393.81;4865580;29;8848;-72
2021/04/30 07:09:39;;;;;;;;;10.75;10.75;;;;;21.50;45.71;101381.47;4881991;29;8879;-72
2021/04/30 07:12:37;;;;;;;;;11.25;11.25;;;;;21.52;44.82;101388.31;4882812;29;8895;-72
2021/04/30 07:15:33;;;;;;;;;12.00;12.00;;;;;21.44;43.59;101385.84;4898865;29;8859;-72
2021/04/30 07:18:28;;;;;;;;;15.50;15.50;;;;;21.53;45.74;101384.31;4900123;29;8892;-72
2021/04/30 07:21:10;;;;;;;;;15.00;15.00;;;;;21.74;44.84;101378.03;4898705;29;8889;-71
2021/04/30 07:23:38;;;;;;;;;10.00;10.00;;;;;21.84;43.06;101380.13;4886603;29;8896;-73
2021/04/30 07:26:33;;;;;;;;;10.50;10.50;;;;;21.93;43.18;101379.81;4899185;29;8905;-74
2021/04/30 07:29:02;;;;;;;;;34.25;22.00;;;;;22.13;43.19;101377.53;4900017;29;9563;-73
2021/04/30 07:31:59;;;;;;;;;9.50;9.50;;;;;22.20;42.19;101380.38;4883538;29;8962;-72
2021/04/30 07:34:55;;;;;;;;;9.75;9.75;;;;;22.16;40.45;101383.19;4880490;29;8867;-72
2021/04/30 07:37:53;;;;;;;;;12.00;12.00;;;;;22.11;42.38;101380.75;4880581;29;8875;-73
2021/04/30 07:40:45;;;;;;;;;10.00;10.00;;;;;21.95;41.26;101368.13;4894615;29;8964;-72
2021/04/30 07:43:42;;;;;;;;;10.00;10.00;;;;;22.34;41.91;101372.00;4899293;29;9655;-72
2021/04/30 07:46:18;;;;;;;;;10.50;10.50;;;;;22.51;41.45;101373.28;4886587;29;8900;-72
2021/04/30 07:48:48;;;;;;;;;12.00;12.00;;;;;22.51;42.50;101369.66;4899820;29;8877;-73
2021/04/30 07:51:43;;;;;;;;;11.75;10.75;;;;;22.38;40.87;101367.19;4880267;29;8855;-73
2021/04/30 07:54:39;;;;;;;;;10.75;10.75;;;;;22.63;41.42;101360.88;4880135;29;9608;-72
2021/04/30 07:57:35;;;;;;;;;11.00;11.00;;;;;22.35;40.95;101359.53;4873286;29;9637;-73
2021/04/30 08:00:30;;;;;;;;;10.75;10.75;;;;;22.99;41.61;101364.59;4894050;29;8955;-73
2021/04/30 08:03:26;;;;;;;;;9.25;9.25;;;;;22.75;41.94;101361.28;4867970;29;8879;-71
2021/04/30 08:05:54;;;;;;;;;13.25;13.25;;;;;22.95;42.67;101350.50;4865132;29;8855;-73
2021/04/30 08:08:45;;;;;;;;;11.25;11.25;;;;;23.07;41.10;101348.50;4880539;29;8895;-73
2021/04/30 08:11:40;;;;;;;;;10.60;10.60;;;;;23.02;40.49;101355.34;4880081;29;8867;-73
2021/04/30 08:14:36;;;;;;;;;12.20;12.20;;;;;22.75;40.17;101350.00;4880124;29;8843;-73
2021/04/30 08:17:32;;;;;;;;;10.00;10.00;;;;;23.36;39.66;101346.50;4892181;29;8849;-73
2021/04/30 08:20:03;;;;;;;;;12.40;12.00;;;;;23.39;40.96;101357.81;4919084;29;8867;-73
2021/04/30 08:22:39;;;;;;;;;11.00;11.00;;;;;23.32;40.61;101351.38;4917316;29;8886;-72
2021/04/30 08:25:08;;;;;;;;;12.00;12.00;;;;;23.11;41.57;101341.66;4875697;29;8900;-71
2021/04/30 08:28:03;;;;;;;;;14.00;14.00;;;;;23.38;41.28;101333.59;4885926;29;8857;-73
2021/04/30 08:30:59;;;;;;;;;8.00;8.00;;;;;23.61;39.30;101329.59;4915999;29;8847;-72
2021/04/30 08:33:35;;;;;;;;;11.00;10.80;;;;;23.61;39.26;101326.75;4918311;29;8874;-72
2021/04/30 08:36:31;;;;;;;;;11.40;10.80;;;;;23.79;40.25;101321.91;4898988;29;8923;-74
2021/04/30 08:39:03;;;;;;;;;10.40;10.40;;;;;23.40;40.57;101327.56;4897947;29;8896;-72
2021/04/30 08:41:58;;;;;;;;;9.00;9.00;;;;;23.78;40.43;101314.66;4917711;29;8893;-72
2021/04/30 08:44:54;;;;;;;;;9.80;9.80;;;;;23.65;40.19;101307.81;4921024;29;8862;-72
2021/04/30 08:47:25;;;;;;;;;10.00;10.00;;;;;23.52;41.83;101307.38;4925959;29;8895;-72
2021/04/30 08:50:21;;;;;;;;;11.80;11.80;;;;;23.39;40.87;101314.69;4924046;29;8871;-73
2021/04/30 08:53:17;;;;;;;;;11.75;11.75;;;;;23.43;41.50;101302.16;4918639;29;9601;-74
2021/04/30 08:56:16;;;;;;;;;12.20;12.20;;;;;23.03;42.32;101307.00;4903545;29;8859;-73
2021/04/30 08:59:12;;;;;;;;;10.50;10.50;;;;;23.31;41.81;101305.41;4917016;29;8871;-71
2021/04/30 09:02:10;;;;;;;;;12.50;12.50;;;;;22.29;43.94;101287.03;4917068;29;8847;-73
2021/04/30 09:05:10;;;;;;;;;11.00;11.00;;;;;22.60;44.41;101294.00;4903981;29;8985;-73
2021/04/30 09:07:48;;;;;;;;;10.00;10.00;;;;;22.78;42.40;101292.03;4916053;29;8978;-72
2021/04/30 09:10:49;;;;;;;;;12.00;12.00;;;;;23.18;42.79;101298.53;4897302;29;8873;-73
2021/04/30 09:13:40;;;;;;;;;7.25;7.25;;;;;22.91;41.75;101289.66;4898880;29;8858;-74
2021/04/30 09:17:04;;;;;;;;;8.75;8.75;;;;;22.97;42.37;101277.56;4897482;29;8881;-73
2021/04/30 09:19:48;;;;;;;;;5.25;5.25;;;;;23.28;43.06;101283.63;4881924;29;8916;-73
2021/04/30 09:22:36;;;;;;;;;8.75;8.50;;;;;23.07;41.99;101281.59;4898596;29;8977;-72
2021/04/30 09:25:45;;;;;;;;;12.40;12.40;;;;;23.33;40.96;101276.78;4909393;29;8863;-72
2021/04/30 09:29:02;;;;;;;;;13.00;13.00;;;;;23.33;40.80;101269.13;4911063;29;8849;-72
2021/04/30 09:31:41;;;;;;;;;8.60;8.60;;;;;23.24;40.74;101269.53;4883913;29;8917;-72
2021/04/30 09:34:14;;;;;;;;;9.40;9.40;;;;;23.41;41.80;101275.56;4881438;29;8888;-72
2021/04/30 09:37:13;;;;;;;;;10.00;9.25;;;;;22.43;42.22;101271.00;4915415;29;8861;-72
2021/04/30 09:39:48;;;;;;;;;10.00;10.00;;;;;23.26;41.43;101269.91;4898755;29;8851;-75
2021/04/30 09:42:40;;;;;;;;;10.80;10.80;;;;;23.16;42.40;101269.94;4898046;29;8853;-72
2021/04/30 09:45:37;;;;;;;;;12.20;11.60;;;;;23.23;41.33;101282.03;4907218;29;8916;-73
2021/04/30 09:48:11;;;;;;;;;10.20;10.20;;;;;23.03;41.54;101277.97;4916757;29;8865;-73
2021/04/30 09:50:43;;;;;;;;;6.80;6.80;;;;;22.75;41.96;101281.53;4916884;29;8873;-73
2021/04/30 09:53:39;;;;;;;;;9.20;9.20;;;;;22.94;43.18;101275.56;4914771;29;9691;-72
2021/04/30 09:56:34;;;;;;;;;11.00;11.00;;;;;22.63;42.01;101270.66;4916179;29;8862;-72
2021/04/30 09:59:23;;;;;;;;;11.00;11.00;;;;;23.21;42.76;101277.97;4915782;29;8867;-73
2021/04/30 10:02:21;;;;;;;;;5.50;5.50;;;;;22.66;43.50;101264.22;4901727;29;8855;-73
2021/04/30 10:05:19;;;;;;;;;9.20;9.20;;;;;23.09;42.63;101269.94;4902004;29;8990;-73
2021/04/30 10:08:15;;;;;;;;;9.50;9.50;;;;;23.08;42.85;101262.66;4910597;29;8874;-73
2021/04/30 10:11:32;;;;;;;;;7.50;7.50;;;;;23.08;43.24;101263.50;4915568;29;9605;-73
2021/04/30 10:14:27;;;;;;;;;9.25;8.75;;;;;23.35;41.89;101251.78;4915431;29;8843;-72
2021/04/30 10:17:23;;;;;;;;;8.60;8.60;;;;;22.97;42.57;101259.84;4910733;29;8846;-72
2021/04/30 10:20:19;;;;;;;;;8.40;8.40;;;;;23.56;41.64;101249.72;4915959;29;8847;-72
2021/04/30 10:23:20;;;;;;;;;8.40;8.40;;;;;23.05;41.33;101257.84;4914948;29;8870;-72
2021/04/30 10:26:18;;;;;;;;;7.00;7.00;;;;;23.41;40.99;101255.81;4915040;29;8855;-72
2021/04/30 10:29:21;;;;;;;;;10.80;10.80;;;;;23.57;39.90;101247.69;4915285;29;9581;-72
2021/04/30 10:32:22;;;;;;;;;7.20;7.20;;;;;23.64;39.43;101252.56;4914398;29;8919;-73
2021/04/30 10:35:23;;;;;;;;;10.60;10.60;;;;;23.81;39.25;101246.84;4915225;29;8961;-75
2021/04/30 10:38:21;;;;;;;;;6.20;6.20;;;;;24.06;37.28;101238.28;4902806;29;8879;-73
2021/04/30 10:41:33;;;;;;;;;6.20;6.20;;;;;23.62;39.05;101241.69;4914616;29;8848;-72
2021/04/30 10:44:31;;;;;;;;;6.00;6.00;;;;;23.96;37.58;101246.81;4915223;29;8843;-74
2021/04/30 10:47:27;;;;;;;;;5.40;5.40;;;;;23.57;39.83;101236.41;4896207;29;8872;-74
2021/04/30 10:50:23;;;;;;;;;4.00;4.00;;;;;23.77;37.72;101237.59;4896479;29;8842;-74
2021/04/30 10:53:29;;;;;;;;;6.00;6.00;;;;;24.29;35.25;101248.25;4896235;29;8983;-73
2021/04/30 10:56:34;;;;;;;;;6.80;6.80;;;;;24.85;34.78;101244.31;4896158;29;9134;-74
2021/04/30 10:59:35;;;;;;;;;6.20;6.20;;;;;25.14;34.30;101241.25;4883531;29;9543;-74
2021/04/30 11:02:33;;;;;;;;;4.80;4.80;;;;;25.15;33.99;101238.03;4883553;29;8853;-75
2021/04/30 11:05:10;;;;;;;;;5.60;5.60;;;;;25.09;33.15;101239.69;4897399;29;8854;-76
2021/04/30 12:47:42;;;;;;;;;8.00;8.00;;;;;27.96;31.79;101104.41;4911156;29;8819;-76
2021/04/30 12:50:35;;;;;;;;;9.20;9.20;;;;;27.85;31.86;101095.34;4899263;29;8912;-74
2021/04/30 12:53:32;;;;;;;;;5.00;5.00;;;;;26.33;34.18;101101.41;4886818;29;8861;-77
2021/04/30 12:56:41;;;;;;;;;6.20;6.20;;;;;26.16;34.88;101098.88;4880280;29;8865;-73
2021/04/30 12:59:10;;;;;;;;;9.00;9.00;;;;;25.67;36.70;101101.13;4898815;29;8872;-75
2021/04/30 13:01:46;;;;;;;;;8.80;8.80;;;;;26.03;35.82;101095.81;4898925;29;8833;-75
2021/04/30 14:03:05;;;;;;;;;8.80;8.80;;;;;25.01;36.78;101050.59;4904514;29;8815;-74
2021/04/30 14:06:01;;;;;;;;;7.40;7.40;;;;;25.27;37.70;101054.75;4921293;29;8862;-75
2021/04/30 14:08:57;;;;;;;;;8.40;8.40;;;;;25.64;36.84;101054.66;4925903;29;8841;-74
2021/04/30 14:11:24;;;;;;;;;8.60;8.60;;;;;25.73;36.43;101037.97;4897988;29;8869;-74
2021/04/30 14:13:53;;;;;;;;;9.40;8.20;;;;;25.83;35.52;101052.38;4914631;29;8915;-75
2021/04/30 14:16:49;;;;;;;;;8.00;8.00;;;;;25.33;36.82;101044.56;4901310;29;8856;-75
2021/04/30 14:19:40;;;;;;;;;9.20;9.20;;;;;25.25;38.06;101040.22;4902258;29;8943;-74
2021/04/30 14:22:21;;;;;;;;;7.00;7.00;;;;;25.02;37.77;101040.88;4915760;29;8867;-75
2021/04/30 14:25:16;;;;;;;;;9.80;9.80;;;;;25.01;38.36;101044.94;4902847;29;8874;-75
2021/04/30 14:28:12;;;;;;;;;6.20;6.20;;;;;24.78;38.13;101042.75;4910840;29;8842;-75
2021/04/30 14:31:07;;;;;;;;;8.20;8.20;;;;;24.63;38.62;101042.09;4899329;29;8862;-75
2021/04/30 14:34:03;;;;;;;;;7.00;7.00;;;;;24.47;38.98;101037.00;4910224;29;8906;-75
2021/04/30 14:36:59;;;;;;;;;9.00;9.00;;;;;24.39;38.67;101032.63;4883670;29;8842;-74
2021/04/30 14:39:54;;;;;;;;;7.80;7.80;;;;;24.30;39.34;101032.25;4896327;29;8953;-75
2021/04/30 14:42:50;;;;;;;;;11.00;11.00;;;;;23.94;40.53;101026.91;4896496;29;8900;-75
2021/04/30 14:45:45;;;;;;;;;10.20;10.20;;;;;23.84;41.04;101025.72;4896781;29;8854;-74
2021/04/30 14:48:13;;;;;;;;;11.20;11.20;;;;;23.89;40.68;101018.84;4898812;29;8851;-73
2021/04/30 14:51:08;;;;;;;;;10.80;10.80;;;;;23.91;40.36;101021.25;4913284;29;8844;-75
2021/04/30 14:54:04;;;;;;;;;9.60;9.60;;;;;23.95;40.29;101014.38;4918822;29;8961;-75
2021/04/30 14:57:01;;;;;;;;;10.40;10.40;;;;;23.91;40.05;101016.41;4919934;29;8865;-77
2021/04/30 14:59:56;;;;;;;;;12.40;11.60;;;;;23.97;41.17;101013.97;4883934;29;8901;-75
2021/04/30 15:02:52;;;;;;;;;9.80;9.80;;;;;23.94;40.31;101015.59;4896114;29;8843;-75
2021/04/30 15:05:50;;;;;;;;;10.80;10.80;;;;;24.00;41.33;101008.28;4893431;29;8859;-74
2021/04/30 15:08:46;;;;;;;;;8.40;8.40;;;;;23.69;40.70;101014.94;4897535;29;8883;-74
2021/04/30 15:11:42;;;;;;;;;9.40;9.00;;;;;23.94;41.62;101007.13;4900301;29;8852;-74
2021/04/30 15:14:38;;;;;;;;;10.20;8.20;;;;;23.89;41.14;101004.72;4893401;29;8877;-74
2021/04/30 15:17:34;;;;;;;;;8.60;8.60;;;;;23.67;41.46;101011.75;4881543;29;8849;-75
2021/04/30 15:20:31;;;;;;;;;8.20;7.80;;;;;23.86;41.51;101002.75;4881271;29;8877;-74
2021/04/30 15:23:00;;;;;;;;;11.20;11.20;;;;;23.67;41.88;101008.91;4881855;29;8856;-74
2021/04/30 15:25:28;;;;;;;;;13.00;12.50;;;;;23.85;41.83;101001.16;4885533;29;8849;-75
2021/04/30 15:27:55;;;;;;;;;9.00;9.00;;;;;23.79;42.12;101000.78;4888292;29;8931;-75
2021/04/30 15:30:23;;;;;;;;;10.20;10.20;;;;;23.84;41.44;100996.69;4888289;29;8827;-75
2021/04/30 15:33:18;;;;;;;;;10.40;10.40;;;;;23.73;42.66;100996.78;4891922;29;8883;-75
2021/04/30 15:36:14;;;;;;;;;6.60;6.60;;;;;23.73;42.50;100998.78;4882100;29;9637;-75
2021/04/30 15:38:42;;;;;;;;;7.60;7.60;;;;;23.57;42.39;101002.09;4876507;29;8953;-75
2021/04/30 15:41:10;;;;;;;;;6.25;6.25;;;;;23.38;42.20;100992.09;4878621;29;8869;-75
2021/04/30 15:44:06;;;;;;;;;8.00;8.00;;;;;23.65;42.54;100992.41;4885314;29;8878;-76
2021/04/30 15:46:48;;;;;;;;;8.60;8.60;;;;;23.45;42.75;100989.25;4888141;29;9593;-75
2021/04/30 15:49:46;;;;;;;;;7.00;7.00;;;;;23.21;42.83;100993.00;4887260;29;9612;-75